Time;durP1;ratioP1;P1;durP2;ratioP2;P2;SDS_P1;SDS_P2;PMS_P1;PMS_P2;Temp;Humidity;BMP_temperature;BMP_pressure;BME280_temperature;BME280_humidity;BME280_pressure;Samples;Min_cycle;Max_cycle;Signal;HPM_P1;HPM_P2
2021/08/23 00:02:22;;;;;;;;;;;;;;;19.37;70.69;100318.31;1673744;85;20201;-81
2021/08/23 00:04:50;;;;;;;;;;;;;;;19.40;70.95;100324.27;1675304;85;20142;-81
2021/08/23 00:07:15;;;;;;;;;;;;;;;19.38;70.83;100322.62;1671453;84;20184;-80
2021/08/23 00:09:41;;;;;;;;;;;;;;;19.40;71.01;100322.41;1675782;84;21931;-81
2021/08/23 00:12:07;;;;;;;;;;;;;;;19.42;70.92;100316.84;1660737;85;20134;-80
2021/08/23 00:14:32;;;;;;;;;;;;;;;19.43;70.82;100310.46;1676403;84;20228;-80
2021/08/23 00:16:58;;;;;;;;;;;;;;;19.43;70.92;100315.81;1675683;85;20248;-80
2021/08/23 00:19:23;;;;;;;;;;;;;;;19.44;70.87;100314.80;1676092;84;20152;-80
2021/08/23 00:22:00;;;;;;;;;;;;;;;19.42;71.00;100311.48;1678631;84;21159;-80
2021/08/23 00:24:23;;;;;;;;;;;;;;;19.39;71.31;100302.03;1672438;84;20548;-80
2021/08/23 00:26:53;;;;;;;;;;;;;;;19.38;71.49;100306.55;1670069;83;20164;-80
2021/08/23 00:29:21;;;;;;;;;;;;;;;19.42;71.36;100298.09;1676868;83;20242;-80
2021/08/23 00:31:46;;;;;;;;;;;;;;;19.40;71.55;100294.81;1672044;83;21186;-80
2021/08/23 00:34:12;;;;;;;;;;;;;;;19.37;71.66;100286.67;1674306;83;20984;-80
2021/08/23 00:36:38;;;;;;;;;;;;;;;19.36;71.89;100281.84;1673791;84;20195;-80
2021/08/23 00:39:05;;;;;;;;;;;;;;;19.38;71.77;100282.45;1675115;85;20209;-80
2021/08/23 00:41:32;;;;;;;;;;;;;;;19.41;71.66;100284.42;1674332;85;20777;-80
2021/08/23 00:43:58;;;;;;;;;;;;;;;19.38;71.62;100285.13;1674990;83;20946;-80
2021/08/23 00:46:24;;;;;;;;;;;;;;;19.34;71.72;100286.59;1674365;85;21087;-80
2021/08/23 00:48:50;;;;;;;;;;;;;;;19.28;71.78;100290.11;1676092;84;20184;-80
2021/08/23 00:51:16;;;;;;;;;;;;;;;19.32;71.82;100285.97;1655377;85;20186;-81
2021/08/23 00:53:44;;;;;;;;;;;;;;;19.19;72.50;100292.71;1674136;84;20257;-80
2021/08/23 00:56:11;;;;;;;;;;;;;;;19.17;72.85;100304.13;1674378;84;20227;-80
2021/08/23 00:58:36;;;;;;;;;;;;;;;19.05;73.61;100309.80;1675850;85;22017;-81
2021/08/23 01:01:04;;;;;;;;;;;;;;;19.10;74.35;100322.88;1670973;84;20241;-80
2021/08/23 01:03:36;;;;;;;;;;;;;;;19.14;73.89;100316.59;1675874;84;20509;-80
2021/08/23 01:06:04;;;;;;;;;;;;;;;19.20;73.77;100315.75;1674935;83;20104;-80
2021/08/23 01:08:33;;;;;;;;;;;;;;;19.22;73.79;100315.05;1675638;85;20172;-79
2021/08/23 01:11:10;;;;;;;;;;;;;;;19.11;73.62;100319.68;1674699;85;21112;-80
2021/08/23 01:13:45;;;;;;;;;;;;;;;18.91;74.62;100320.55;1674241;85;20132;-79
2021/08/23 01:16:13;;;;;;;;;;;;;;;18.95;74.33;100309.71;1636101;85;20228;-79
2021/08/23 01:18:38;;;;;;;;;;;;;;;19.03;75.04;100315.89;1675413;85;20218;-79
2021/08/23 01:21:04;;;;;;;;;;;;;;;19.05;75.00;100309.31;1674890;84;20269;-80
2021/08/23 01:23:34;;;;;;;;;;;;;;;18.91;75.53;100308.99;1655013;85;21914;-79
2021/08/23 01:26:03;;;;;;;;;;;;;;;18.85;76.18;100317.36;1676621;85;20207;-79
2021/08/23 01:28:52;;;;;;;;;;;;;;;18.77;76.76;100309.52;1674053;84;20552;-80
2021/08/23 01:31:41;;;;;;;;;;;;;;;18.76;77.33;100313.20;1675840;84;20203;-80
2021/08/23 01:34:08;;;;;;;;;;;;;;;18.84;77.68;100315.66;1656328;85;20212;-80
2021/08/23 01:36:34;;;;;;;;;;;;;;;18.95;77.32;100312.39;1677577;85;21937;-80
2021/08/23 01:38:59;;;;;;;;;;;;;;;19.04;76.82;100309.52;1676291;84;20526;-80
2021/08/23 01:41:25;;;;;;;;;;;;;;;19.06;76.44;100305.58;1675980;84;20192;-80
2021/08/23 01:43:50;;;;;;;;;;;;;;;19.03;75.89;100304.66;1677482;84;21663;-80
2021/08/23 01:46:16;;;;;;;;;;;;;;;18.96;76.41;100297.98;1660253;84;20134;-80
2021/08/23 01:48:42;;;;;;;;;;;;;;;19.01;76.07;100306.20;1677820;84;22136;-80
2021/08/23 01:51:07;;;;;;;;;;;;;;;18.90;76.31;100308.19;1681230;84;20142;-80
2021/08/23 01:53:33;;;;;;;;;;;;;;;18.84;76.26;100302.29;1676988;84;20490;-80
2021/08/23 01:55:58;;;;;;;;;;;;;;;18.89;76.28;100299.02;1681698;84;20142;-79
2021/08/23 01:58:24;;;;;;;;;;;;;;;18.81;76.20;100305.37;1679722;83;20151;-80
2021/08/23 02:00:49;;;;;;;;;;;;;;;18.81;76.07;100306.72;1680870;83;20836;-79
2021/08/23 02:03:15;;;;;;;;;;;;;;;18.83;76.12;100304.64;1678912;84;20801;-79
2021/08/23 02:05:41;;;;;;;;;;;;;;;18.82;75.87;100308.37;1678096;84;20203;-80
2021/08/23 02:08:06;;;;;;;;;;;;;;;18.80;75.78;100309.10;1677247;84;20156;-80
2021/08/23 02:10:32;;;;;;;;;;;;;;;18.75;75.71;100310.22;1678738;84;20174;-80
2021/08/23 02:12:57;;;;;;;;;;;;;;;18.78;75.38;100304.45;1680945;84;21170;-79
2021/08/23 02:15:23;;;;;;;;;;;;;;;18.72;75.44;100307.45;1681759;84;20166;-79
2021/08/23 02:17:49;;;;;;;;;;;;;;;18.64;75.28;100300.45;1680375;84;20509;-79
2021/08/23 02:20:14;;;;;;;;;;;;;;;18.50;75.61;100308.14;1680466;83;20498;-79
2021/08/23 02:22:41;;;;;;;;;;;;;;;18.48;75.80;100309.69;1684155;83;20170;-79
2021/08/23 02:25:08;;;;;;;;;;;;;;;18.42;76.01;100304.34;1656881;85;21302;-79
2021/08/23 02:27:36;;;;;;;;;;;;;;;18.42;76.24;100300.33;1676640;84;20154;-79
2021/08/23 02:30:03;;;;;;;;;;;;;;;18.44;76.06;100296.92;1656289;84;20182;-79
2021/08/23 02:32:28;;;;;;;;;;;;;;;18.41;76.37;100289.31;1679974;84;20201;-78
2021/08/23 02:34:54;;;;;;;;;;;;;;;18.37;75.83;100294.78;1681765;84;20763;-78
2021/08/23 02:37:20;;;;;;;;;;;;;;;18.32;76.59;100294.55;1679201;84;21135;-79
2021/08/23 02:39:46;;;;;;;;;;;;;;;18.26;76.44;100298.88;1680115;84;20177;-79
2021/08/23 02:42:12;;;;;;;;;;;;;;;18.29;76.86;100292.59;1673359;84;20478;-79
2021/08/23 02:44:37;;;;;;;;;;;;;;;18.25;76.68;100308.72;1679191;84;20135;-78
2021/08/23 02:47:04;;;;;;;;;;;;;;;18.32;76.52;100307.42;1686781;83;20176;-81
2021/08/23 02:49:30;;;;;;;;;;;;;;;18.41;76.74;100299.52;1680406;83;21095;-80
2021/08/23 02:51:57;;;;;;;;;;;;;;;18.45;76.08;100298.58;1679327;84;20159;-79
2021/08/23 02:54:25;;;;;;;;;;;;;;;18.47;76.21;100293.84;1679919;84;20203;-79
2021/08/23 02:56:52;;;;;;;;;;;;;;;18.46;75.71;100286.87;1680403;84;20140;-79
2021/08/23 02:59:17;;;;;;;;;;;;;;;18.45;75.82;100277.19;1675952;84;20201;-79
2021/08/23 03:01:43;;;;;;;;;;;;;;;18.48;75.84;100268.76;1681722;84;21092;-80
2021/08/23 03:04:08;;;;;;;;;;;;;;;18.46;75.81;100262.28;1682638;84;20465;-79
2021/08/23 03:06:34;;;;;;;;;;;;;;;18.45;76.02;100262.48;1678575;84;20637;-79
2021/08/23 03:09:01;;;;;;;;;;;;;;;18.48;76.00;100252.71;1681967;84;20124;-79
2021/08/23 03:11:27;;;;;;;;;;;;;;;18.46;76.55;100246.76;1682326;84;20199;-79
2021/08/23 03:13:55;;;;;;;;;;;;;;;18.50;76.37;100238.61;1680468;84;21932;-79
2021/08/23 03:16:20;;;;;;;;;;;;;;;18.49;76.20;100235.66;1680289;84;20166;-79
2021/08/23 03:18:46;;;;;;;;;;;;;;;18.47;76.54;100224.31;1655617;84;20234;-79
2021/08/23 03:21:11;;;;;;;;;;;;;;;18.41;76.56;100222.47;1680795;84;20178;-80
2021/08/23 03:23:37;;;;;;;;;;;;;;;18.39;76.99;100225.34;1680779;83;20143;-79
2021/08/23 03:26:03;;;;;;;;;;;;;;;18.33;76.87;100232.04;1675960;83;21107;-78
2021/08/23 03:28:28;;;;;;;;;;;;;;;18.20;77.30;100240.36;1680164;83;20221;-79
2021/08/23 03:30:54;;;;;;;;;;;;;;;18.23;77.30;100251.98;1681163;83;20152;-78
2021/08/23 03:33:20;;;;;;;;;;;;;;;18.15;77.20;100263.36;1681340;84;21183;-79
2021/08/23 03:35:45;;;;;;;;;;;;;;;18.02;78.15;100265.02;1679009;84;20300;-78
2021/08/23 03:38:11;;;;;;;;;;;;;;;18.03;78.15;100273.84;1680785;84;21094;-79
2021/08/23 03:40:36;;;;;;;;;;;;;;;18.01;78.57;100275.91;1677981;84;20298;-78
2021/08/23 03:43:02;;;;;;;;;;;;;;;18.05;78.28;100277.13;1680968;83;20921;-78
2021/08/23 03:45:28;;;;;;;;;;;;;;;18.03;78.55;100288.55;1674348;83;20234;-78
2021/08/23 03:47:53;;;;;;;;;;;;;;;18.00;78.62;100288.95;1683625;84;20182;-78
2021/08/23 03:50:19;;;;;;;;;;;;;;;17.87;78.73;100289.19;1680403;85;21049;-78
2021/08/23 03:52:45;;;;;;;;;;;;;;;17.92;78.71;100286.75;1677048;85;20168;-79
2021/08/23 03:55:11;;;;;;;;;;;;;;;18.04;78.40;100288.86;1654446;85;20197;-78
2021/08/23 03:57:36;;;;;;;;;;;;;;;18.04;78.30;100290.20;1679544;84;20179;-78
2021/08/23 04:00:08;;;;;;;;;;;;;;;18.05;78.16;100293.16;1674092;84;20221;-78
2021/08/23 04:02:34;;;;;;;;;;;;;;;18.00;78.49;100292.95;1681103;83;21155;-81
2021/08/23 04:04:59;;;;;;;;;;;;;;;18.07;78.56;100291.10;1679532;84;20234;-81
2021/08/23 04:07:25;;;;;;;;;;;;;;;18.01;78.61;100296.76;1675037;85;20273;-80
2021/08/23 04:09:51;;;;;;;;;;;;;;;18.03;78.69;100296.56;1671005;84;20135;-80
2021/08/23 04:12:16;;;;;;;;;;;;;;;18.02;78.34;100286.88;1680055;85;20162;-79
2021/08/23 04:14:42;;;;;;;;;;;;;;;18.09;78.10;100281.86;1678755;85;21077;-79
2021/08/23 04:17:07;;;;;;;;;;;;;;;18.13;77.94;100288.95;1678290;83;20194;-78
2021/08/23 04:19:33;;;;;;;;;;;;;;;18.11;77.76;100295.03;1675367;85;20199;-78
2021/08/23 04:21:59;;;;;;;;;;;;;;;18.15;77.80;100290.09;1674981;84;20492;-80
2021/08/23 04:24:25;;;;;;;;;;;;;;;18.09;77.74;100283.20;1674551;85;20137;-80
2021/08/23 04:26:50;;;;;;;;;;;;;;;18.11;77.66;100285.16;1658103;84;21306;-80
2021/08/23 04:29:16;;;;;;;;;;;;;;;18.09;77.86;100289.07;1678667;85;21245;-80
2021/08/23 04:31:44;;;;;;;;;;;;;;;18.00;78.18;100274.25;1677817;84;20152;-79
2021/08/23 04:34:12;;;;;;;;;;;;;;;18.03;78.05;100267.16;1675151;84;20123;-80
2021/08/23 04:36:38;;;;;;;;;;;;;;;18.04;78.06;100256.80;1677286;85;20192;-80
2021/08/23 04:39:04;;;;;;;;;;;;;;;18.03;78.04;100252.47;1674357;84;21089;-81
2021/08/23 04:41:35;;;;;;;;;;;;;;;18.03;77.78;100245.78;1675296;84;20186;-81
2021/08/23 04:44:00;;;;;;;;;;;;;;;18.02;77.94;100240.13;1677005;84;20191;-81
2021/08/23 04:46:26;;;;;;;;;;;;;;;17.97;77.84;100233.23;1678342;83;20158;-81
2021/08/23 04:48:52;;;;;;;;;;;;;;;17.96;77.96;100236.92;1678530;83;20146;-80
2021/08/23 04:51:17;;;;;;;;;;;;;;;17.95;77.79;100232.10;1678089;83;21080;-81
2021/08/23 04:53:43;;;;;;;;;;;;;;;17.92;78.31;100235.98;1679323;85;20607;-78
2021/08/23 04:56:10;;;;;;;;;;;;;;;17.86;78.28;100239.96;1678657;85;20141;-78
2021/08/23 04:58:38;;;;;;;;;;;;;;;17.85;78.49;100243.16;1677881;84;20208;-79
2021/08/23 05:01:04;;;;;;;;;;;;;;;17.83;78.51;100251.86;1680101;83;20342;-79
2021/08/23 05:03:31;;;;;;;;;;;;;;;17.86;78.38;100260.00;1679371;83;21076;-79
2021/08/23 05:05:56;;;;;;;;;;;;;;;17.85;78.41;100260.52;1678265;83;20171;-79
2021/08/23 05:08:22;;;;;;;;;;;;;;;17.84;78.33;100257.53;1678913;83;20139;-80
2021/08/23 05:10:47;;;;;;;;;;;;;;;17.86;78.60;100254.66;1677725;83;20430;-80
2021/08/23 05:13:13;;;;;;;;;;;;;;;17.92;78.45;100250.69;1675119;84;20173;-80
2021/08/23 05:15:38;;;;;;;;;;;;;;;18.00;78.13;100244.86;1678761;84;21087;-79
2021/08/23 05:18:04;;;;;;;;;;;;;;;18.12;77.83;100248.58;1679087;85;20484;-79
2021/08/23 05:20:29;;;;;;;;;;;;;;;18.18;77.79;100250.44;1677866;83;20202;-79
2021/08/23 05:22:55;;;;;;;;;;;;;;;18.15;77.75;100260.69;1678935;83;20163;-79
2021/08/23 05:25:21;;;;;;;;;;;;;;;18.10;77.96;100266.64;1681077;85;20200;-81
2021/08/23 05:27:47;;;;;;;;;;;;;;;18.18;78.02;100269.15;1676771;83;21041;-78
2021/08/23 05:30:13;;;;;;;;;;;;;;;18.23;77.93;100281.38;1662468;85;20729;-78
2021/08/23 05:32:41;;;;;;;;;;;;;;;18.21;77.81;100282.11;1678452;83;20238;-78
2021/08/23 05:35:07;;;;;;;;;;;;;;;18.24;77.85;100279.52;1676630;84;20164;-78
2021/08/23 05:37:32;;;;;;;;;;;;;;;18.27;77.89;100275.11;1676470;84;20222;-77
2021/08/23 05:39:58;;;;;;;;;;;;;;;18.27;77.68;100273.27;1654641;84;21157;-77
2021/08/23 05:42:24;;;;;;;;;;;;;;;18.27;78.07;100272.43;1676898;85;20533;-77
2021/08/23 05:44:52;;;;;;;;;;;;;;;18.32;77.61;100272.66;1680979;83;20110;-77
2021/08/23 05:47:18;;;;;;;;;;;;;;;18.29;77.91;100270.40;1683803;83;20230;-79
2021/08/23 05:49:43;;;;;;;;;;;;;;;18.37;77.94;100277.40;1682671;83;20162;-78
2021/08/23 05:52:09;;;;;;;;;;;;;;;18.39;77.66;100277.48;1684092;83;21069;-79
2021/08/23 05:54:34;;;;;;;;;;;;;;;18.46;77.33;100276.17;1679348;84;20591;-80
2021/08/23 05:57:00;;;;;;;;;;;;;;;18.43;77.61;100280.59;1674703;84;20219;-79
2021/08/23 05:59:27;;;;;;;;;;;;;;;18.39;77.75;100283.36;1652886;84;20120;-79
2021/08/23 06:01:53;;;;;;;;;;;;;;;18.45;77.88;100284.69;1681490;84;20252;-79
2021/08/23 06:04:20;;;;;;;;;;;;;;;18.47;77.46;100283.98;1677443;84;21024;-79
2021/08/23 06:06:45;;;;;;;;;;;;;;;18.55;77.39;100288.81;1681691;83;20548;-79
2021/08/23 06:09:11;;;;;;;;;;;;;;;18.46;77.40;100293.03;1682716;83;20150;-77
2021/08/23 06:11:37;;;;;;;;;;;;;;;18.51;77.62;100288.41;1676530;84;20138;-78
2021/08/23 06:14:02;;;;;;;;;;;;;;;18.55;77.53;100280.30;1655706;84;20351;-78
2021/08/23 06:16:28;;;;;;;;;;;;;;;18.59;77.28;100276.16;1677487;84;21112;-78
2021/08/23 06:18:53;;;;;;;;;;;;;;;18.70;76.98;100274.72;1676538;84;20143;-77
2021/08/23 06:24:06;;;;;;;;;;;;;;;18.77;76.81;100274.73;1646569;85;20102;-77
2021/08/23 06:26:32;;;;;;;;;;;;;;;18.80;76.69;100271.64;1646934;86;20145;-78
2021/08/23 06:28:57;;;;;;;;;;;;;;;18.81;76.42;100273.27;1647277;87;21123;-78
2021/08/23 06:31:23;;;;;;;;;;;;;;;18.85;76.42;100270.53;1647803;85;20771;-78
2021/08/23 06:33:49;;;;;;;;;;;;;;;18.83;76.66;100265.84;1646822;85;20189;-78
2021/08/23 06:36:15;;;;;;;;;;;;;;;18.86;76.56;100270.00;1647626;86;20686;-78
2021/08/23 06:38:41;;;;;;;;;;;;;;;18.89;76.61;100266.39;1646058;85;20130;-78
2021/08/23 06:41:06;;;;;;;;;;;;;;;18.89;76.14;100266.39;1643215;85;21083;-78
2021/08/23 06:43:33;;;;;;;;;;;;;;;18.84;76.22;100270.17;1646737;85;20666;-79
2021/08/23 06:45:59;;;;;;;;;;;;;;;18.89;76.49;100273.08;1641789;85;20194;-78
2021/08/23 06:48:25;;;;;;;;;;;;;;;18.86;76.67;100270.81;1644190;85;20161;-78
2021/08/23 06:50:52;;;;;;;;;;;;;;;18.86;76.40;100270.81;1646633;85;20502;-78
2021/08/23 06:53:18;;;;;;;;;;;;;;;18.82;76.68;100276.27;1646793;86;20149;-78
2021/08/23 06:55:43;;;;;;;;;;;;;;;18.83;76.91;100280.07;1642558;86;20197;-77
2021/08/23 06:58:11;;;;;;;;;;;;;;;18.83;76.94;100285.91;1646454;86;20673;-77
2021/08/23 07:00:37;;;;;;;;;;;;;;;18.83;77.26;100276.55;1644885;85;20175;-77
2021/08/23 07:03:03;;;;;;;;;;;;;;;18.90;76.84;100282.77;1646119;85;20218;-77
2021/08/23 07:05:29;;;;;;;;;;;;;;;18.90;77.17;100278.75;1645603;86;21073;-76
2021/08/23 07:07:54;;;;;;;;;;;;;;;18.91;77.13;100280.41;1647008;85;20344;-77
2021/08/23 07:10:20;;;;;;;;;;;;;;;18.90;77.13;100278.75;1647067;85;20137;-77
2021/08/23 07:12:46;;;;;;;;;;;;;;;18.95;77.06;100274.92;1646789;85;20267;-78
2021/08/23 07:15:11;;;;;;;;;;;;;;;18.97;77.03;100268.87;1645388;85;20173;-78
2021/08/23 07:17:37;;;;;;;;;;;;;;;18.99;76.99;100266.80;1646469;85;21106;-78
2021/08/23 07:20:03;;;;;;;;;;;;;;;19.06;77.07;100268.63;1645282;86;20538;-77
2021/08/23 07:22:29;;;;;;;;;;;;;;;19.19;76.79;100269.95;1644520;85;20150;-80
2021/08/23 07:24:54;;;;;;;;;;;;;;;19.30;76.37;100268.48;1643279;85;20188;-80
2021/08/23 07:27:20;;;;;;;;;;;;;;;19.33;76.00;100264.86;1647051;85;20176;-78
2021/08/23 07:29:46;;;;;;;;;;;;;;;19.33;76.00;100260.84;1646406;85;21139;-78
2021/08/23 07:32:11;;;;;;;;;;;;;;;19.36;76.31;100267.11;1645087;85;20314;-80
2021/08/23 07:34:37;;;;;;;;;;;;;;;19.40;75.84;100270.71;1649027;85;20177;-81
2021/08/23 07:37:03;;;;;;;;;;;;;;;19.42;76.00;100269.48;1644614;85;20354;-79
2021/08/23 07:39:30;;;;;;;;;;;;;;;19.52;75.87;100277.87;1644758;85;20526;-79
2021/08/23 07:41:56;;;;;;;;;;;;;;;19.59;75.63;100275.16;1645902;85;21042;-80
2021/08/23 07:44:21;;;;;;;;;;;;;;;19.65;75.24;100278.84;1643486;85;20504;-81
2021/08/23 07:46:47;;;;;;;;;;;;;;;19.65;75.07;100282.34;1644777;85;20169;-80
2021/08/23 07:49:12;;;;;;;;;;;;;;;19.77;75.00;100276.36;1645624;86;20189;-80
2021/08/23 07:51:38;;;;;;;;;;;;;;;19.84;74.77;100279.81;1647944;85;20251;-81
2021/08/23 07:54:03;;;;;;;;;;;;;;;19.76;75.30;100280.04;1648673;85;21020;-80
2021/08/23 07:56:29;;;;;;;;;;;;;;;19.73;75.20;100287.48;1644163;85;20398;-81
2021/08/23 07:58:56;;;;;;;;;;;;;;;19.73;74.84;100280.78;1646384;85;20284;-79
2021/08/23 08:01:22;;;;;;;;;;;;;;;19.77;74.74;100281.72;1644713;86;20170;-79
2021/08/23 08:03:48;;;;;;;;;;;;;;;19.77;74.78;100279.85;1644495;85;20190;-79
2021/08/23 08:06:15;;;;;;;;;;;;;;;19.73;74.48;100284.80;1643120;85;20672;-79
2021/08/23 08:08:42;;;;;;;;;;;;;;;19.78;74.56;100286.02;1643397;85;20176;-79
2021/08/23 08:11:08;;;;;;;;;;;;;;;19.81;74.54;100285.59;1645862;85;20181;-79
2021/08/23 08:13:33;;;;;;;;;;;;;;;19.79;74.22;100287.68;1640963;85;20812;-80
2021/08/23 08:15:59;;;;;;;;;;;;;;;19.78;74.57;100286.87;1645477;85;20179;-79
2021/08/23 08:18:24;;;;;;;;;;;;;;;19.86;74.25;100295.18;1644945;85;21798;-78
2021/08/23 08:20:50;;;;;;;;;;;;;;;19.90;73.98;100296.38;1646649;85;20185;-79
2021/08/23 08:23:16;;;;;;;;;;;;;;;19.88;74.13;100301.95;1644590;85;20781;-78
2021/08/23 08:25:42;;;;;;;;;;;;;;;19.90;74.09;100302.58;1641922;85;20141;-79
2021/08/23 08:28:08;;;;;;;;;;;;;;;19.92;74.45;100305.05;1647040;86;20199;-80
2021/08/23 08:30:34;;;;;;;;;;;;;;;20.00;74.23;100301.30;1619647;86;21524;-80
2021/08/23 08:33:00;;;;;;;;;;;;;;;20.06;74.05;100310.63;1642615;85;20141;-80
2021/08/23 08:35:25;;;;;;;;;;;;;;;20.12;73.74;100310.80;1643558;85;20217;-80
2021/08/23 08:37:52;;;;;;;;;;;;;;;20.15;73.81;100310.38;1642871;85;21372;-81
2021/08/23 08:40:18;;;;;;;;;;;;;;;20.08;73.32;100308.55;1644218;85;20351;-80
2021/08/23 08:42:43;;;;;;;;;;;;;;;20.12;73.17;100316.16;1646215;85;21029;-79
2021/08/23 08:45:10;;;;;;;;;;;;;;;20.12;73.99;100315.66;1646539;86;20239;-84
2021/08/23 08:47:35;;;;;;;;;;;;;;;20.16;74.01;100317.39;1644638;85;20183;-81
2021/08/23 08:50:01;;;;;;;;;;;;;;;20.12;73.94;100323.70;1640787;85;21407;-83
2021/08/23 08:52:26;;;;;;;;;;;;;;;20.12;73.81;100324.20;1640717;86;20187;-80
2021/08/23 08:54:52;;;;;;;;;;;;;;;20.10;73.84;100321.74;1641678;85;21143;-80
2021/08/23 08:57:18;;;;;;;;;;;;;;;20.11;74.00;100327.95;1644292;85;20388;-81
2021/08/23 08:59:44;;;;;;;;;;;;;;;20.09;74.37;100331.66;1643987;87;20177;-82
2021/08/23 09:02:10;;;;;;;;;;;;;;;20.13;74.71;100328.02;1641012;85;20196;-82
2021/08/23 09:04:37;;;;;;;;;;;;;;;20.07;74.42;100327.53;1640902;85;20177;-80
2021/08/23 09:07:05;;;;;;;;;;;;;;;20.02;74.71;100330.05;1644769;86;20572;-82
2021/08/23 09:09:31;;;;;;;;;;;;;;;20.08;75.62;100332.68;1644153;86;20858;-81
2021/08/23 09:12:01;;;;;;;;;;;;;;;20.13;75.47;100325.86;1642803;86;20214;-81
2021/08/23 09:14:27;;;;;;;;;;;;;;;20.22;75.53;100327.25;1641266;85;20134;-82
2021/08/23 09:16:53;;;;;;;;;;;;;;;20.21;75.88;100330.96;1643389;85;20213;-82
2021/08/23 09:19:24;;;;;;;;;;;;;;;20.18;75.69;100327.37;1643077;86;21093;-80
2021/08/23 09:21:59;;;;;;;;;;;;;;;20.20;76.39;100329.34;1642463;86;20508;-84
2021/08/23 09:24:24;;;;;;;;;;;;;;;20.19;76.17;100329.02;1649354;85;20607;-81
2021/08/23 09:26:50;;;;;;;;;;;;;;;20.24;76.19;100333.22;1647782;85;20173;-81
2021/08/23 09:29:16;;;;;;;;;;;;;;;20.28;76.18;100326.39;1623812;85;20331;-80
2021/08/23 09:31:41;;;;;;;;;;;;;;;20.23;76.29;100331.59;1651021;85;21193;-82
2021/08/23 09:34:11;;;;;;;;;;;;;;;20.28;76.42;100331.75;1647101;86;20225;-82
2021/08/23 09:36:37;;;;;;;;;;;;;;;20.32;76.37;100325.43;1652882;86;20224;-82
2021/08/23 09:39:09;;;;;;;;;;;;;;;20.39;76.38;100324.34;1647898;85;20176;-84
2021/08/23 09:41:40;;;;;;;;;;;;;;;20.49;76.31;100328.41;1650901;85;20491;-84
2021/08/23 09:44:06;;;;;;;;;;;;;;;20.57;75.96;100329.48;1654147;85;20275;-82
2021/08/23 09:46:34;;;;;;;;;;;;;;;20.61;75.90;100328.83;1652624;85;20883;-82
2021/08/23 09:49:02;;;;;;;;;;;;;;;20.67;75.79;100329.05;1652401;85;20547;-82
2021/08/23 09:51:36;;;;;;;;;;;;;;;20.68;75.95;100328.83;1653379;85;20130;-81
2021/08/23 09:54:11;;;;;;;;;;;;;;;20.67;75.67;100328.52;1652344;85;20176;-81
2021/08/23 09:56:51;;;;;;;;;;;;;;;20.61;76.90;100330.70;1655837;85;21249;-82
2021/08/23 09:59:18;;;;;;;;;;;;;;;20.61;76.89;100328.02;1654290;85;20157;-81
2021/08/23 10:01:46;;;;;;;;;;;;;;;20.58;77.36;100325.23;1653996;84;20264;-81
2021/08/23 10:04:12;;;;;;;;;;;;;;;20.54;77.97;100328.58;1654087;85;20233;-82
2021/08/23 10:06:39;;;;;;;;;;;;;;;20.52;78.63;100322.62;1657469;85;20977;-80
2021/08/23 10:09:06;;;;;;;;;;;;;;;20.35;79.42;100321.79;1648428;85;21255;-81
2021/08/23 10:11:32;;;;;;;;;;;;;;;20.26;80.32;100318.56;1651408;85;20133;-81
2021/08/23 10:13:58;;;;;;;;;;;;;;;20.24;80.82;100325.17;1649450;85;20203;-82
2021/08/23 10:16:24;;;;;;;;;;;;;;;20.28;80.76;100314.33;1653098;85;20206;-82
2021/08/23 10:18:49;;;;;;;;;;;;;;;20.18;81.19;100316.64;1651325;85;20134;-81
2021/08/23 10:21:15;;;;;;;;;;;;;;;20.06;82.09;100317.86;1651638;85;21182;-80
2021/08/23 10:23:43;;;;;;;;;;;;;;;20.04;82.43;100312.72;1648192;85;20192;-83
2021/08/23 10:26:08;;;;;;;;;;;;;;;20.03;82.95;100313.74;1636284;86;20207;-84
2021/08/23 10:28:36;;;;;;;;;;;;;;;20.05;83.02;100310.84;1613165;86;39315;-81
2021/08/23 10:31:08;;;;;;;;;;;;;;;20.04;82.95;100313.22;1635984;86;20177;-83
2021/08/23 10:33:36;;;;;;;;;;;;;;;20.12;82.83;100310.80;1637073;85;20583;-77
2021/08/23 10:36:02;;;;;;;;;;;;;;;20.18;82.80;100315.30;1637759;86;21177;-79
2021/08/23 10:38:28;;;;;;;;;;;;;;;20.06;83.99;100306.61;1636902;86;20430;-78
2021/08/23 10:41:15;;;;;;;;;;;;;;;19.99;84.71;100308.50;1634583;86;20488;-81
2021/08/23 10:43:48;;;;;;;;;;;;;;;20.11;84.29;100317.22;1635663;86;20227;-79
2021/08/23 10:46:39;;;;;;;;;;;;;;;20.12;84.35;100311.64;1635326;86;21259;-80
2021/08/23 10:49:14;;;;;;;;;;;;;;;20.19;83.81;100315.62;1616601;86;20133;-80
2021/08/23 10:51:45;;;;;;;;;;;;;;;20.15;84.18;100311.71;1634532;86;20187;-80
2021/08/23 10:54:22;;;;;;;;;;;;;;;20.17;84.58;100306.98;1614040;86;20723;-81
2021/08/23 10:56:54;;;;;;;;;;;;;;;20.21;84.50;100310.85;1641979;86;20589;-79
2021/08/23 10:59:19;;;;;;;;;;;;;;;20.19;84.71;100311.59;1634348;86;21416;-80
2021/08/23 11:01:55;;;;;;;;;;;;;;;20.12;85.86;100310.80;1633161;86;20153;-82
2021/08/23 11:04:33;;;;;;;;;;;;;;;20.18;85.38;100312.63;1635284;86;20206;-81
2021/08/23 11:07:01;;;;;;;;;;;;;;;20.15;85.80;100314.39;1634885;86;20154;-82
2021/08/23 11:09:30;;;;;;;;;;;;;;;20.05;87.04;100317.02;1636006;86;20225;-82
2021/08/23 11:12:11;;;;;;;;;;;;;;;19.94;87.09;100312.34;1635237;85;21302;-79
2021/08/23 11:14:52;;;;;;;;;;;;;;;19.74;88.26;100309.72;1611427;86;20278;-80
2021/08/23 11:17:32;;;;;;;;;;;;;;;19.59;90.49;100310.50;1614852;86;20157;-82
2021/08/23 11:20:03;;;;;;;;;;;;;;;19.48;91.61;100311.48;1638697;86;20893;-80
2021/08/23 11:22:29;;;;;;;;;;;;;;;19.34;92.67;100310.70;1637560;85;20208;-81
2021/08/23 11:24:55;;;;;;;;;;;;;;;19.38;93.59;100305.73;1642382;86;21196;-84
2021/08/23 11:27:20;;;;;;;;;;;;;;;19.29;94.17;100302.98;1644802;86;20418;-86
2021/08/23 11:29:53;;;;;;;;;;;;;;;19.34;93.82;100301.82;1644940;85;20153;-83
2021/08/23 11:32:23;;;;;;;;;;;;;;;19.30;94.42;100296.07;1629262;86;20788;-82
2021/08/23 11:34:50;;;;;;;;;;;;;;;19.22;94.91;100296.31;1643363;85;20205;-84
2021/08/23 11:37:15;;;;;;;;;;;;;;;19.12;95.57;100291.36;1647533;85;21112;-84
2021/08/23 11:39:41;;;;;;;;;;;;;;;19.17;96.15;100293.41;1643364;85;20237;-83
2021/08/23 11:42:07;;;;;;;;;;;;;;;19.05;97.19;100289.73;1643485;85;20522;-82
2021/08/23 11:44:34;;;;;;;;;;;;;;;19.06;97.72;100295.41;1642209;85;20168;-83
2021/08/23 11:47:03;;;;;;;;;;;;;;;19.01;98.42;100295.50;1643988;85;20217;-81
2021/08/23 11:49:39;;;;;;;;;;;;;;;19.00;99.08;100291.70;1644757;85;21248;-82
2021/08/23 11:52:17;;;;;;;;;;;;;;;19.09;98.04;100294.46;1646590;85;20157;-82
2021/08/23 11:54:48;;;;;;;;;;;;;;;19.08;98.06;100295.52;1645707;85;20148;-81
2021/08/23 11:57:13;;;;;;;;;;;;;;;19.06;98.02;100291.39;1645420;85;20217;-80
2021/08/23 11:59:41;;;;;;;;;;;;;;;18.99;98.89;100292.22;1642944;85;20777;-81
2021/08/23 12:02:12;;;;;;;;;;;;;;;18.97;98.98;100291.61;1648186;84;21092;-80
2021/08/23 12:04:38;;;;;;;;;;;;;;;18.94;99.18;100297.38;1646768;86;20217;-83
2021/08/23 12:07:04;;;;;;;;;;;;;;;18.91;99.85;100291.60;1646270;86;20199;-79
2021/08/23 12:09:30;;;;;;;;;;;;;;;18.86;100.00;100294.90;1626268;86;20189;-79
2021/08/23 12:11:55;;;;;;;;;;;;;;;18.77;100.00;100300.15;1626248;86;20539;-84
2021/08/23 12:14:22;;;;;;;;;;;;;;;18.77;100.00;100296.14;1628594;87;21819;-80
2021/08/23 12:16:48;;;;;;;;;;;;;;;18.68;100.00;100292.84;1624640;86;20186;-82
2021/08/23 12:19:14;;;;;;;;;;;;;;;18.59;100.00;100293.55;1645484;85;20395;-81
2021/08/23 12:21:40;;;;;;;;;;;;;;;18.53;100.00;100287.67;1648920;85;20122;-81
2021/08/23 12:24:10;;;;;;;;;;;;;;;18.63;100.00;100286.77;1644161;85;20122;-81
2021/08/23 12:26:42;;;;;;;;;;;;;;;18.58;100.00;100295.92;1618899;86;21062;-83
2021/08/23 12:29:15;;;;;;;;;;;;;;;18.56;100.00;100283.25;1614639;86;20642;-82
2021/08/23 12:31:56;;;;;;;;;;;;;;;18.56;100.00;100277.91;1614011;86;20244;-81
2021/08/23 12:34:29;;;;;;;;;;;;;;;18.59;100.00;100282.03;1610426;86;20220;-81
2021/08/23 12:36:57;;;;;;;;;;;;;;;18.46;100.00;100275.65;1621246;86;20222;-81
2021/08/23 12:39:23;;;;;;;;;;;;;;;18.49;100.00;100270.41;1613864;86;21921;-81